Perry, Illinois
Current Conditions -  °F | °C
As of 11:15 AM on Saturday 25 Oct 2014 (Local Time) from KPPQ Reporting Station
Clear Clear  
Wind Chill: 70°   Ceiling: Unl
Heat Index: 70°   Visibility: 10mi
Dew Point: 59°   Wind: 3mph
Humidity: 68%   Direction: 300°WNW
Pressure: 30.06"   Gusts: NA
Location:  39.78°N, 90.75°W
Report Text: KPPQ 251615Z AUTO 30003KT 10SM CLR 21/15 A3006 RMK AO2 T02110150
Loading
Personal Weather Stations






























Interactive Weather Map New forecast layout! Learn more

10-Day Weather Forecast

Advertisements
Track Severe Weather on mobile